Terminal Aerodrome Forecast
Issued by NWS

Home | Current Version | Previous Version | Text Only | Print | Product List | Glossary Off
Versions: 1 2 3 4 5 6 7 8 9 10 11 12 13

000
FTUS45 KGGW 241120
TAFSDY
TAF
KSDY 241120Z 2412/2512 18006KT P6SM FEW230 WS020/18040KT
     FM241400 18008KT P6SM FEW220
     FM241700 22010G18KT P6SM FEW160
     FM241800 26010G18KT P6SM FEW160
     FM242100 32011G22KT P6SM FEW160
     FM250100 35008KT P6SM SCT110 PROB30 2506/2509 6SM TS BKN100CB=

USA.gov is the U.S. government's official web portal to all federal, state and local government web resources and services.